createdAt,value
2018-07-11T00:00:29.016Z,5.20
2018-07-11T00:01:28.919Z,5.00
2018-07-11T00:02:29.017Z,5.80
2018-07-11T00:03:28.959Z,5.70
2018-07-11T00:04:29.027Z,5.70
2018-07-11T00:05:28.998Z,6.30
2018-07-11T00:06:29.042Z,7.20
2018-07-11T00:07:29.024Z,4.90
2018-07-11T00:08:29.155Z,6.50
2018-07-11T00:09:29.073Z,7.70
2018-07-11T00:10:29.167Z,5.00
2018-07-11T00:11:29.105Z,5.10
2018-07-11T00:12:29.183Z,5.70
2018-07-11T00:13:29.129Z,5.30
2018-07-11T00:14:29.198Z,8.30
2018-07-11T00:15:29.186Z,6.10
2018-07-11T00:16:29.201Z,6.70
2018-07-11T00:17:29.213Z,7.10
2018-07-11T00:18:29.340Z,6.20
2018-07-11T00:19:29.266Z,6.60
2018-07-11T00:20:29.322Z,6.10
2018-07-11T00:21:29.269Z,6.00
2018-07-11T00:22:29.349Z,6.30
2018-07-11T00:23:29.320Z,7.40
2018-07-11T00:24:29.343Z,6.10
2018-07-11T00:25:29.349Z,7.60
2018-07-11T00:26:29.368Z,8.40
2018-07-11T00:27:29.400Z,6.30
2018-07-11T00:28:29.493Z,9.40
2018-07-11T00:29:29.412Z,7.00
2018-07-11T00:30:29.501Z,6.10
2018-07-11T00:31:29.445Z,6.40
2018-07-11T00:32:29.519Z,6.30
2018-07-11T00:33:29.476Z,7.30
2018-07-11T00:34:29.520Z,6.00
2018-07-11T00:35:29.538Z,6.80
2018-07-11T00:36:29.640Z,6.00
2018-07-11T00:37:29.703Z,7.50
2018-07-11T00:38:29.668Z,6.10
2018-07-11T00:39:29.585Z,11.00
2018-07-11T00:40:29.668Z,5.90
2018-07-11T00:41:29.624Z,13.50
2018-07-11T00:42:29.689Z,6.40
2018-07-11T00:43:29.681Z,7.60
2018-07-11T00:44:29.705Z,7.20
2018-07-11T00:45:29.703Z,6.10
2018-07-11T00:46:29.891Z,7.60
2018-07-11T00:47:29.736Z,5.50
2018-07-11T00:48:29.825Z,7.90
2018-07-11T00:49:29.777Z,5.00
2018-07-11T00:50:29.870Z,8.60
2018-07-11T00:51:29.882Z,7.60
2018-07-11T00:52:29.900Z,6.20
2018-07-11T00:53:29.834Z,7.50
2018-07-11T00:54:29.858Z,7.80
2018-07-11T00:55:29.857Z,6.90
2018-07-11T00:56:29.904Z,7.50
2018-07-11T00:57:29.902Z,5.50
2018-07-11T00:58:30.018Z,8.10
2018-07-11T00:59:29.953Z,6.10
2018-07-11T01:00:29.955Z,6.40
2018-07-11T01:01:29.974Z,6.20
2018-07-11T01:02:30.015Z,6.40
2018-07-11T01:03:30.027Z,6.80
2018-07-11T01:04:30.129Z,7.00
2018-07-11T01:05:30.036Z,7.80
2018-07-11T01:06:30.147Z,8.80
2018-07-11T01:07:30.084Z,7.90
2018-07-11T01:08:30.159Z,7.00
2018-07-11T01:09:30.103Z,8.70
2018-07-11T01:10:30.173Z,7.60
2018-07-11T01:11:30.141Z,6.70
2018-07-11T01:12:30.198Z,6.20
2018-07-11T01:13:30.194Z,6.80
2018-07-11T01:14:30.306Z,7.30
2018-07-11T01:15:30.214Z,5.90
2018-07-11T01:16:30.316Z,7.00
2018-07-11T01:17:30.245Z,8.10
2018-07-11T01:18:30.340Z,6.80
2018-07-11T01:19:30.300Z,6.80
2018-07-11T01:20:30.330Z,6.60
2018-07-11T01:21:30.390Z,7.20
2018-07-11T01:22:30.463Z,8.00
2018-07-11T01:23:30.444Z,7.80
2018-07-11T01:24:30.475Z,8.20
2018-07-11T01:25:30.389Z,8.60
2018-07-11T01:26:30.485Z,7.10
2018-07-11T01:27:30.420Z,8.80
2018-07-11T01:28:30.506Z,7.90
2018-07-11T01:29:30.456Z,8.60
2018-07-11T01:30:30.585Z,10.00
2018-07-11T01:31:30.491Z,8.90
2018-07-11T01:32:30.628Z,7.60
2018-07-11T01:33:30.519Z,8.30
2018-07-11T01:34:30.736Z,9.80
2018-07-11T01:35:30.563Z,11.30
2018-07-11T01:36:30.749Z,10.70
2018-07-11T01:37:30.597Z,8.60
2018-07-11T01:38:30.741Z,8.60
2018-07-11T01:39:30.640Z,9.60
2018-07-11T01:40:30.770Z,7.30
2018-07-11T01:41:30.654Z,8.40
2018-07-11T01:42:30.902Z,7.30
2018-07-11T01:43:30.696Z,7.20
2018-07-11T01:44:30.896Z,8.00
2018-07-11T01:45:30.739Z,7.20
2018-07-11T01:46:30.915Z,7.30
2018-07-11T01:47:30.773Z,9.50
2018-07-11T01:48:31.031Z,8.00
2018-07-11T01:49:30.802Z,6.90
2018-07-11T01:50:30.931Z,10.60
2018-07-11T01:51:30.846Z,7.70
2018-07-11T01:52:31.037Z,7.70
2018-07-11T01:53:30.888Z,6.70
2018-07-11T01:54:31.059Z,7.70
2018-07-11T01:55:30.898Z,7.70
2018-07-11T01:56:31.079Z,8.30
2018-07-11T01:57:30.935Z,9.10
2018-07-11T01:58:31.103Z,6.80
2018-07-11T01:59:30.976Z,7.80
2018-07-11T02:00:31.108Z,8.90
2018-07-11T02:01:31.011Z,8.10
2018-07-11T02:02:31.214Z,7.70
2018-07-11T02:03:31.032Z,8.80
2018-07-11T02:04:31.237Z,8.20
2018-07-11T02:05:31.072Z,9.40
2018-07-11T02:06:31.257Z,9.50
2018-07-11T02:07:31.106Z,8.50
2018-07-11T02:08:31.248Z,7.30
2018-07-11T02:09:31.141Z,9.10
2018-07-11T02:10:31.261Z,6.80
2018-07-11T02:11:31.170Z,7.50
2018-07-11T02:12:31.400Z,8.60
2018-07-11T02:13:31.224Z,7.90
2018-07-11T02:14:31.435Z,10.00
2018-07-11T02:15:31.252Z,11.10
2018-07-11T02:16:31.427Z,10.10
2018-07-11T02:17:31.286Z,8.50
2018-07-11T02:18:31.442Z,7.10
2018-07-11T02:19:31.322Z,8.00
2018-07-11T02:20:31.539Z,8.20
2018-07-11T02:21:31.345Z,8.60
2018-07-11T02:22:31.590Z,15.70
2018-07-11T02:23:31.373Z,14.20
2018-07-11T02:24:32.607Z,11.00
2018-07-11T02:25:31.406Z,7.00
2018-07-11T02:26:31.590Z,7.90
2018-07-11T02:27:31.446Z,9.60
2018-07-11T02:28:31.602Z,7.20
2018-07-11T02:29:31.487Z,7.50
2018-07-11T02:30:31.646Z,8.50
2018-07-11T02:31:31.525Z,7.10
2018-07-11T02:32:31.743Z,9.20
2018-07-11T02:33:31.567Z,9.20
2018-07-11T02:34:31.748Z,8.00
2018-07-11T02:35:31.599Z,8.00
2018-07-11T02:36:31.659Z,7.30
2018-07-11T02:37:31.616Z,7.20
2018-07-11T02:38:31.694Z,8.70
2018-07-11T02:39:31.651Z,8.10
2018-07-11T02:40:31.693Z,6.30
2018-07-11T02:41:31.704Z,9.60
2018-07-11T02:42:31.801Z,7.70
2018-07-11T02:43:31.710Z,9.20
2018-07-11T02:44:31.827Z,10.60
2018-07-11T02:45:31.767Z,8.90
2018-07-11T02:46:31.831Z,8.20
2018-07-11T02:47:31.781Z,8.10
2018-07-11T02:48:31.850Z,7.70
2018-07-11T02:49:31.875Z,8.90
2018-07-11T02:50:31.950Z,8.40
2018-07-11T02:51:31.887Z,9.30
2018-07-11T02:52:31.968Z,8.10
2018-07-11T02:53:31.897Z,8.10
2018-07-11T02:54:31.992Z,9.10
2018-07-11T02:55:31.933Z,13.50
2018-07-11T02:56:31.987Z,7.60
2018-07-11T02:57:31.966Z,7.80
2018-07-11T02:58:32.018Z,8.30
2018-07-11T02:59:32.000Z,10.20
2018-07-11T03:00:32.050Z,9.60
2018-07-11T03:01:32.062Z,8.00
2018-07-11T03:02:32.145Z,6.90
2018-07-11T03:03:32.075Z,6.90
2018-07-11T03:04:32.182Z,9.70
2018-07-11T03:05:32.164Z,7.80
2018-07-11T03:06:32.163Z,10.40
2018-07-11T03:07:32.136Z,8.10
2018-07-11T03:08:32.182Z,7.90
2018-07-11T03:09:32.166Z,9.50
2018-07-11T03:10:32.323Z,9.80
2018-07-11T03:11:32.208Z,12.50
2018-07-11T03:12:32.317Z,8.40
2018-07-11T03:13:32.223Z,11.10
2018-07-11T03:14:32.249Z,8.70
2018-07-11T03:15:32.277Z,11.40
2018-07-11T03:16:32.330Z,10.20
2018-07-11T03:17:32.287Z,15.00
2018-07-11T03:18:32.347Z,9.60
2018-07-11T03:19:32.345Z,8.20
2018-07-11T03:20:32.470Z,8.30
2018-07-11T03:21:32.395Z,9.40
2018-07-11T03:22:32.494Z,12.70
2018-07-11T03:23:32.389Z,8.50
2018-07-11T03:24:32.518Z,10.30
2018-07-11T03:25:32.441Z,10.30
2018-07-11T03:26:32.517Z,9.10
2018-07-11T03:27:32.453Z,11.20
2018-07-11T03:28:32.556Z,11.60
2018-07-11T03:29:32.493Z,11.00
2018-07-11T03:30:32.646Z,12.90
2018-07-11T03:31:32.530Z,10.90
2018-07-11T03:32:32.706Z,12.40
2018-07-11T03:33:32.575Z,8.10
2018-07-11T03:34:32.671Z,9.20
2018-07-11T03:35:32.603Z,8.00
2018-07-11T03:36:32.671Z,7.70
2018-07-11T03:37:32.630Z,11.90
2018-07-11T03:38:32.686Z,7.70
2018-07-11T03:39:32.666Z,8.70
2018-07-11T03:40:32.831Z,13.90
2018-07-11T03:41:32.720Z,11.10
2018-07-11T03:42:32.902Z,12.60
2018-07-11T03:43:32.724Z,10.40
2018-07-11T03:44:32.752Z,9.50
2018-07-11T03:45:32.804Z,9.30
2018-07-11T03:46:32.788Z,9.80
2018-07-11T03:47:32.823Z,10.90
2018-07-11T03:48:32.798Z,8.50
2018-07-11T03:49:33.860Z,9.30
2018-07-11T03:50:32.867Z,9.40
2018-07-11T03:51:32.958Z,11.50
2018-07-11T03:52:32.889Z,10.20
2018-07-11T03:53:32.991Z,9.00
2018-07-11T03:54:32.929Z,7.80
2018-07-11T03:55:32.999Z,9.20
2018-07-11T03:56:32.963Z,7.80
2018-07-11T03:57:32.984Z,8.40
2018-07-11T03:58:32.975Z,9.00
2018-07-11T03:59:33.112Z,9.70
2018-07-11T04:00:33.025Z,8.90
2018-07-11T04:01:33.138Z,10.30
2018-07-11T04:02:33.039Z,12.10
2018-07-11T04:03:34.149Z,9.50
2018-07-11T04:04:33.101Z,10.50
2018-07-11T04:05:34.165Z,9.60
2018-07-11T04:06:33.132Z,9.00
2018-07-11T04:07:33.144Z,14.40
2018-07-11T04:08:33.292Z,9.20
2018-07-11T04:09:33.184Z,9.60
2018-07-11T04:10:34.268Z,9.90
2018-07-11T04:11:33.227Z,13.20
2018-07-11T04:12:33.285Z,10.10
2018-07-11T04:13:33.252Z,13.10
2018-07-11T04:14:33.313Z,11.20
2018-07-11T04:15:33.275Z,17.90
2018-07-11T04:16:33.351Z,12.40
2018-07-11T04:17:33.349Z,11.00
2018-07-11T04:18:33.463Z,12.50
2018-07-11T04:19:33.339Z,13.00
2018-07-11T04:20:33.451Z,9.00
2018-07-11T04:21:33.373Z,9.60
2018-07-11T04:22:33.460Z,9.40
2018-07-11T04:23:33.426Z,9.80
2018-07-11T04:24:33.580Z,10.80
2018-07-11T04:25:33.440Z,10.00
2018-07-11T04:26:33.475Z,14.80
2018-07-11T04:27:33.496Z,16.00
2018-07-11T04:28:33.621Z,14.60
2018-07-11T04:29:33.512Z,9.90
2018-07-11T04:30:33.617Z,12.80
2018-07-11T04:31:33.549Z,10.10
2018-07-11T04:32:33.635Z,11.40
2018-07-11T04:33:33.573Z,11.30
2018-07-11T04:34:33.682Z,19.10
2018-07-11T04:35:33.614Z,15.30
2018-07-11T04:36:33.656Z,12.00
2018-07-11T04:37:33.635Z,11.70
2018-07-11T04:38:33.769Z,10.40
2018-07-11T04:39:33.678Z,12.90
2018-07-11T04:40:33.787Z,12.10
2018-07-11T04:41:33.741Z,11.30
2018-07-11T04:42:33.864Z,12.30
2018-07-11T04:43:33.742Z,16.00
2018-07-11T04:44:33.804Z,11.20
2018-07-11T04:45:33.768Z,12.20
2018-07-11T04:46:33.813Z,12.30
2018-07-11T04:47:33.807Z,10.90
2018-07-11T04:48:33.941Z,10.00
2018-07-11T04:49:33.842Z,11.40
2018-07-11T04:50:33.890Z,9.60
2018-07-11T04:51:33.874Z,11.60
2018-07-11T04:52:35.049Z,9.20
2018-07-11T04:53:33.907Z,9.50
2018-07-11T04:54:33.969Z,13.10
2018-07-11T04:55:33.944Z,31.90
2018-07-11T04:56:33.983Z,14.00
2018-07-11T04:57:33.989Z,11.20
2018-07-11T04:58:34.021Z,9.70
2018-07-11T04:59:33.986Z,10.20
2018-07-11T05:00:34.135Z,10.80
2018-07-11T05:01:34.093Z,9.90
2018-07-11T05:02:34.213Z,10.70
2018-07-11T05:03:34.076Z,11.60
2018-07-11T05:04:35.152Z,14.30
2018-07-11T05:05:34.105Z,12.20
2018-07-11T05:06:34.149Z,9.60
2018-07-11T05:07:34.149Z,12.30
2018-07-11T05:08:34.153Z,10.00
2018-07-11T05:09:34.194Z,9.40
2018-07-11T05:10:34.193Z,10.40
2018-07-11T05:11:34.251Z,11.60
2018-07-11T05:12:34.224Z,8.00
2018-07-11T05:13:34.308Z,8.80
2018-07-11T05:14:34.257Z,11.20
2018-07-11T05:15:34.327Z,14.60
2018-07-11T05:16:34.293Z,11.90
2018-07-11T05:17:34.314Z,12.40
2018-07-11T05:18:34.321Z,15.40
2018-07-11T05:19:34.447Z,9.10
2018-07-11T05:20:34.391Z,8.60
2018-07-11T05:21:34.459Z,14.40
2018-07-11T05:22:34.421Z,9.80
2018-07-11T05:23:34.490Z,9.60
2018-07-11T05:24:34.435Z,7.90
2018-07-11T05:25:34.513Z,7.20
2018-07-11T05:26:34.474Z,9.70
2018-07-11T05:27:34.498Z,15.80
2018-07-11T05:28:34.508Z,10.10
2018-07-11T05:29:35.524Z,13.50
2018-07-11T05:30:34.536Z,14.50
2018-07-11T05:31:34.549Z,12.60
2018-07-11T05:32:34.600Z,15.30
2018-07-11T05:33:34.632Z,14.00
2018-07-11T05:34:34.601Z,14.90
2018-07-11T05:35:46.221Z,10.40
2018-07-11T05:36:34.619Z,10.80
2018-07-11T06:34:54.248Z,11.70
2018-07-11T06:35:53.466Z,11.60
2018-07-11T06:36:52.406Z,13.50
2018-07-11T06:37:52.517Z,12.00
2018-07-11T06:38:52.443Z,8.70
2018-07-11T06:39:52.575Z,10.30
2018-07-11T06:40:52.475Z,13.00
2018-07-11T06:41:52.585Z,12.70
2018-07-11T06:42:52.505Z,10.70
2018-07-11T06:43:52.586Z,7.60
2018-07-11T06:44:52.540Z,11.70
2018-07-11T06:45:52.591Z,12.20
2018-07-11T06:46:52.590Z,8.60
2018-07-11T06:47:52.762Z,10.10
2018-07-11T06:48:52.610Z,10.30
2018-07-11T06:49:52.641Z,8.20
2018-07-11T06:50:52.653Z,12.00
2018-07-11T06:51:52.736Z,9.70
2018-07-11T06:52:52.687Z,12.70
2018-07-11T06:53:52.852Z,10.90
2018-07-11T06:54:52.734Z,10.50
2018-07-11T06:55:52.855Z,14.50
2018-07-11T06:56:52.767Z,12.40
2018-07-11T06:57:52.797Z,11.10
2018-07-11T06:58:52.784Z,13.60
2018-07-11T06:59:52.934Z,9.40
2018-07-11T07:00:52.862Z,10.70
2018-07-11T07:01:52.949Z,12.10
2018-07-11T07:02:52.853Z,9.10
2018-07-11T07:03:52.983Z,11.50
2018-07-11T07:04:52.911Z,11.00
2018-07-11T07:05:52.907Z,10.80
2018-07-11T07:06:52.931Z,10.40
2018-07-11T07:07:52.953Z,9.40
2018-07-11T07:08:53.004Z,13.40
2018-07-11T07:09:53.076Z,11.40
2018-07-11T07:10:53.005Z,16.00
2018-07-11T07:11:53.108Z,10.10
2018-07-11T07:12:53.039Z,14.00
2018-07-11T07:13:53.103Z,14.50
2018-07-11T07:14:53.070Z,12.40
2018-07-11T07:15:53.115Z,14.20
2018-07-11T07:16:53.105Z,12.50
2018-07-11T07:17:53.135Z,15.40
2018-07-11T07:18:53.132Z,11.70
2018-07-11T07:19:53.167Z,12.70
2018-07-11T07:20:53.161Z,12.30
2018-07-11T07:21:53.272Z,14.70
2018-07-11T07:22:53.224Z,11.00
2018-07-11T07:23:53.271Z,15.90
2018-07-11T07:24:53.234Z,11.60
2018-07-11T07:25:53.287Z,10.70
2018-07-11T07:26:53.265Z,13.60
2018-07-11T07:27:53.290Z,8.20
2018-07-11T07:28:53.306Z,13.10
2018-07-11T07:29:54.371Z,8.70
2018-07-11T07:30:53.324Z,15.90
2018-07-11T07:31:53.475Z,11.00
2018-07-11T07:32:53.370Z,13.80
2018-07-11T07:33:53.445Z,11.70
2018-07-11T07:34:53.392Z,9.40
2018-07-11T07:35:53.445Z,10.00
2018-07-11T07:36:53.479Z,10.30
2018-07-11T07:37:53.472Z,19.20
2018-07-11T07:38:53.493Z,10.90
2018-07-11T07:39:53.599Z,15.90
2018-07-11T07:40:53.592Z,12.30
2018-07-11T07:41:53.656Z,13.00
2018-07-11T07:42:53.559Z,11.80
2018-07-11T07:43:53.568Z,15.60
2018-07-11T07:44:53.613Z,13.00
2018-07-11T07:45:53.590Z,13.60
2018-07-11T07:46:53.658Z,15.00
2018-07-11T07:47:53.611Z,16.20
2018-07-11T07:48:53.650Z,10.80
2018-07-11T07:49:53.680Z,13.30
2018-07-11T07:50:53.670Z,16.60
2018-07-11T07:51:53.685Z,13.00
2018-07-11T07:52:53.764Z,13.70
2018-07-11T07:53:53.725Z,13.90
2018-07-11T07:54:53.773Z,13.90
2018-07-11T07:55:53.780Z,19.70
2018-07-11T07:56:53.795Z,16.60
2018-07-11T07:57:53.799Z,17.10
2018-07-11T07:58:54.910Z,15.10
2018-07-11T07:59:53.814Z,17.50
2018-07-11T08:00:53.847Z,9.70
2018-07-11T08:01:53.880Z,22.70
2018-07-11T08:02:53.977Z,11.00
2018-07-11T08:03:53.924Z,14.40
2018-07-11T08:04:53.924Z,12.00
2018-07-11T08:05:53.928Z,16.10
2018-07-11T08:06:54.010Z,14.60
2018-07-11T08:07:53.960Z,11.90
2018-07-11T08:08:53.979Z,17.80
2018-07-11T08:09:54.027Z,14.10
2018-07-11T08:10:54.006Z,16.30
2018-07-11T08:11:55.162Z,13.80
2018-07-11T08:12:54.081Z,13.90
2018-07-11T08:13:54.248Z,14.00
2018-07-11T08:14:54.080Z,14.80
2018-07-11T08:15:54.264Z,16.30
2018-07-11T08:16:54.135Z,10.30
2018-07-11T08:17:54.275Z,13.70
2018-07-11T08:18:54.160Z,17.10
2018-07-11T08:19:54.266Z,9.10
2018-07-11T08:20:54.193Z,22.70
2018-07-11T08:21:54.303Z,13.00
2018-07-11T08:22:54.211Z,10.90
2018-07-11T08:23:54.287Z,12.40
2018-07-11T08:24:54.266Z,15.90
2018-07-11T08:25:54.563Z,13.40
2018-07-11T08:26:54.314Z,10.10
2018-07-11T08:27:54.414Z,14.00
2018-07-11T08:28:54.338Z,16.80
2018-07-11T08:29:54.413Z,16.40
2018-07-11T08:30:54.356Z,16.70
2018-07-11T08:31:54.454Z,14.40
2018-07-11T08:32:54.410Z,9.50
2018-07-11T08:33:54.411Z,19.50
2018-07-11T08:34:54.454Z,18.80
2018-07-11T08:35:54.455Z,15.70
2018-07-11T08:37:38.237Z,11.60
2018-07-11T08:38:38.049Z,13.50
2018-07-11T08:39:38.080Z,15.80
2018-07-11T08:40:38.210Z,12.90
2018-07-11T08:41:38.097Z,16.40
2018-07-11T08:42:38.114Z,18.50
2018-07-11T08:43:38.131Z,20.70
2018-07-11T08:44:40.335Z,9.90
2018-07-11T08:45:38.176Z,11.20
2018-07-11T08:46:38.265Z,18.40
2018-07-11T08:47:38.237Z,14.00
2018-07-11T08:48:38.275Z,13.30
2018-07-11T08:49:38.287Z,14.00
2018-07-11T08:50:38.428Z,8.30
2018-07-11T08:51:38.301Z,12.50
2018-07-11T08:52:38.326Z,12.30
2018-07-11T08:53:38.332Z,13.80
2018-07-11T08:54:39.523Z,11.00
2018-07-11T08:55:38.360Z,12.10
2018-07-11T08:56:39.462Z,13.00
2018-07-11T08:57:38.396Z,22.40
2018-07-11T08:58:40.559Z,7.90
2018-07-11T08:59:38.427Z,11.20
2018-07-11T09:00:40.588Z,13.50
2018-07-11T09:01:38.470Z,12.20
2018-07-11T09:02:38.638Z,11.00
2018-07-11T09:03:38.508Z,11.50
2018-07-11T09:04:39.667Z,9.90
2018-07-11T09:05:38.542Z,12.10
2018-07-11T09:06:38.770Z,10.40
2018-07-11T09:07:38.592Z,10.30
2018-07-11T09:08:38.818Z,11.80
2018-07-11T09:09:38.611Z,5.90
2018-07-11T09:10:38.848Z,19.50
2018-07-11T09:11:38.657Z,9.60
2018-07-11T09:12:38.800Z,13.40
2018-07-11T09:13:38.732Z,9.80
2018-07-11T09:14:38.823Z,8.50
2018-07-11T09:15:38.731Z,16.20
2018-07-11T09:16:38.928Z,10.20
2018-07-11T09:17:38.771Z,11.10
2018-07-11T09:18:38.963Z,8.40
2018-07-11T09:19:38.795Z,11.90
2018-07-11T09:20:38.978Z,11.20
2018-07-11T09:21:38.840Z,13.20
2018-07-11T09:22:38.963Z,9.50
2018-07-11T09:23:38.906Z,15.50
2018-07-11T09:24:40.049Z,12.30
2018-07-11T09:25:38.898Z,11.40
2018-07-11T09:26:39.143Z,12.10
2018-07-11T09:27:38.957Z,9.50
2018-07-11T09:28:39.103Z,12.20
2018-07-11T09:29:38.987Z,15.80
2018-07-11T09:30:39.162Z,14.20
2018-07-11T09:31:39.020Z,9.40
2018-07-11T09:32:39.143Z,10.90
2018-07-11T09:33:39.053Z,16.20
2018-07-11T09:34:39.099Z,9.00
2018-07-11T09:35:39.271Z,11.10
2018-07-11T09:36:39.111Z,9.40
2018-07-11T09:37:39.299Z,9.60
2018-07-11T09:38:39.146Z,11.30
2018-07-11T09:39:39.293Z,8.00
2018-07-11T09:40:39.182Z,8.80
2018-07-11T09:41:40.340Z,12.50
2018-07-11T09:42:39.217Z,12.50
2018-07-11T09:43:39.423Z,11.70
2018-07-11T09:44:39.263Z,12.60
2018-07-11T09:45:39.338Z,17.20
2018-07-11T09:46:40.390Z,13.80
2018-07-11T09:47:39.324Z,11.20
2018-07-11T09:48:39.332Z,11.30
2018-07-11T09:49:39.391Z,13.70
2018-07-11T09:50:39.385Z,13.40
2018-07-11T09:51:39.383Z,8.90
2018-07-11T09:52:39.534Z,15.80
2018-07-11T09:53:39.437Z,14.30
2018-07-11T09:54:39.436Z,14.40
2018-07-11T09:55:39.443Z,11.90
2018-07-11T09:56:39.484Z,12.80
2018-07-11T09:57:39.556Z,7.90
2018-07-11T09:58:39.511Z,9.20
2018-07-11T09:59:39.538Z,9.10
2018-07-11T10:00:39.582Z,8.80
2018-07-11T10:01:39.564Z,8.10
2018-07-11T10:02:39.571Z,6.60
2018-07-11T10:03:39.641Z,6.90
2018-07-11T10:04:39.630Z,13.20
2018-07-11T10:05:39.636Z,9.70
2018-07-11T10:06:39.717Z,8.40
2018-07-11T10:07:39.926Z,9.90
2018-07-11T10:08:39.679Z,9.50
2018-07-11T10:09:39.740Z,9.10
2018-07-11T10:10:39.836Z,8.90
2018-07-11T10:11:39.735Z,9.20
2018-07-11T10:12:40.903Z,11.60
2018-07-11T10:13:39.782Z,10.30
2018-07-11T10:14:39.805Z,9.10
2018-07-11T10:15:40.904Z,9.40
2018-07-11T10:16:39.834Z,6.10
2018-07-11T10:17:39.993Z,8.90
2018-07-11T10:18:39.875Z,10.90
2018-07-11T10:19:39.915Z,8.70
2018-07-11T10:20:39.912Z,5.30
2018-07-11T10:21:40.002Z,5.90
2018-07-11T10:22:39.946Z,9.90
2018-07-11T10:23:39.966Z,6.10
2018-07-11T10:24:39.997Z,12.40
2018-07-11T10:25:40.008Z,9.50
2018-07-11T10:26:40.014Z,8.50
2018-07-11T10:27:41.195Z,5.70
2018-07-11T10:28:40.197Z,9.00
2018-07-11T10:29:40.191Z,9.00
2018-07-11T10:30:40.119Z,8.80
2018-07-11T10:31:42.277Z,6.40
2018-07-11T10:32:40.140Z,9.10
2018-07-11T10:33:40.163Z,7.30
2018-07-11T10:34:40.172Z,8.10
2018-07-11T10:35:40.326Z,9.00
2018-07-11T10:36:40.205Z,9.70
2018-07-11T10:37:40.214Z,8.00
2018-07-11T10:38:40.222Z,9.80
2018-07-11T10:39:40.281Z,7.20
2018-07-11T10:40:40.274Z,6.80
2018-07-11T10:41:40.303Z,5.90
2018-07-11T10:42:40.304Z,10.40
2018-07-11T10:43:40.332Z,9.00
2018-07-11T10:44:42.427Z,11.40
2018-07-11T10:45:40.374Z,6.40
2018-07-11T10:46:40.508Z,8.20
2018-07-11T10:47:40.430Z,7.50
2018-07-11T10:48:40.515Z,8.90
2018-07-11T10:49:40.442Z,8.00
2018-07-11T10:50:40.542Z,7.60
2018-07-11T10:51:40.480Z,6.10
2018-07-11T10:52:40.489Z,6.40
2018-07-11T10:53:40.516Z,7.60
2018-07-11T10:54:40.554Z,8.10
2018-07-11T10:55:40.616Z,7.10
2018-07-11T10:56:40.591Z,12.70
2018-07-11T10:57:40.787Z,7.90
2018-07-11T10:58:40.626Z,11.10
2018-07-11T10:59:40.727Z,7.90
2018-07-11T11:00:40.657Z,6.80
2018-07-11T11:01:40.646Z,10.60
2018-07-11T11:02:40.695Z,9.20
2018-07-11T11:03:40.844Z,5.90
2018-07-11T11:04:40.705Z,7.30
2018-07-11T11:05:41.890Z,6.70
2018-07-11T11:06:40.751Z,7.40
2018-07-11T11:07:40.832Z,6.50
2018-07-11T11:08:40.788Z,9.80
2018-07-11T11:09:40.945Z,11.40
2018-07-11T11:10:40.837Z,9.50
2018-07-11T11:11:42.031Z,9.80
2018-07-11T11:12:40.857Z,13.00
2018-07-11T11:13:41.030Z,11.00
2018-07-11T11:14:40.938Z,14.00
2018-07-11T11:15:40.918Z,11.10
2018-07-11T11:16:40.943Z,11.50
2018-07-11T11:17:40.965Z,11.10
2018-07-11T11:18:41.000Z,8.80
2018-07-11T11:19:41.293Z,11.90
2018-07-11T11:20:41.165Z,9.20
2018-07-11T11:21:41.043Z,9.80
2018-07-11T11:22:41.266Z,12.40
2018-07-11T11:23:41.059Z,11.10
2018-07-11T11:24:41.191Z,8.10
2018-07-11T11:25:41.155Z,12.10
2018-07-11T11:26:41.329Z,10.80
2018-07-11T11:27:41.142Z,14.30
2018-07-11T11:28:41.151Z,13.70
2018-07-11T11:29:41.267Z,12.60
2018-07-11T11:30:41.204Z,10.00
2018-07-11T11:31:41.265Z,10.40
2018-07-11T11:32:41.311Z,9.40
2018-07-11T11:33:41.251Z,11.80
2018-07-11T11:34:41.335Z,9.60
2018-07-11T11:35:41.320Z,13.10
2018-07-11T11:36:41.373Z,10.00
2018-07-11T11:37:41.327Z,13.00
2018-07-11T11:38:41.332Z,12.60
2018-07-11T11:39:41.379Z,12.00
2018-07-11T11:40:41.380Z,14.20
2018-07-11T11:41:41.517Z,14.80
2018-07-11T11:42:41.479Z,12.00
2018-07-11T11:43:41.424Z,12.50
2018-07-11T11:44:41.436Z,17.80
2018-07-11T11:45:41.550Z,10.10
2018-07-11T11:46:41.498Z,16.00
2018-07-11T11:47:41.494Z,11.90
2018-07-11T11:48:41.511Z,10.60
2018-07-11T11:49:42.603Z,11.20
2018-07-11T11:50:41.553Z,10.60
2018-07-11T11:51:41.581Z,14.50
2018-07-11T11:52:41.618Z,17.20
2018-07-11T11:53:41.619Z,12.00
2018-07-11T11:54:41.628Z,17.40
2018-07-11T11:55:41.740Z,16.60
2018-07-11T11:56:41.668Z,10.80
2018-07-11T11:57:41.693Z,14.60
2018-07-11T11:58:41.700Z,15.80
2018-07-11T11:59:41.737Z,14.80
2018-07-11T12:00:41.959Z,17.90
2018-07-11T12:01:41.816Z,18.80
2018-07-11T12:02:41.776Z,17.60
2018-07-11T12:03:41.969Z,12.60
2018-07-11T12:04:41.818Z,16.60
2018-07-11T12:05:41.835Z,19.60
2018-07-11T12:06:41.987Z,19.10
2018-07-11T12:07:41.872Z,21.00
2018-07-11T12:08:42.061Z,15.70
2018-07-11T12:09:41.907Z,20.60
2018-07-11T12:10:41.931Z,17.00
2018-07-11T12:11:41.941Z,21.00
2018-07-11T12:12:41.962Z,18.70
2018-07-11T12:13:41.990Z,22.00
2018-07-11T12:14:42.010Z,22.00
2018-07-11T12:15:42.033Z,19.10
2018-07-11T12:16:42.060Z,20.90
2018-07-11T12:17:42.256Z,16.90
2018-07-11T12:18:42.074Z,17.30
2018-07-11T12:19:42.084Z,16.60
2018-07-11T12:20:42.106Z,20.80
2018-07-11T12:21:42.142Z,17.40
2018-07-11T12:22:42.149Z,18.50
2018-07-11T12:23:42.159Z,20.60
2018-07-11T12:24:42.301Z,20.00
2018-07-11T12:25:42.448Z,21.40
2018-07-11T12:26:42.218Z,17.20
2018-07-11T12:27:42.390Z,19.00
2018-07-11T12:28:42.258Z,19.40
2018-07-11T12:29:42.293Z,15.00
2018-07-11T12:30:42.320Z,19.90
2018-07-11T12:31:42.329Z,15.80
2018-07-11T12:32:42.430Z,19.40
2018-07-11T12:33:42.363Z,22.90
2018-07-11T12:34:42.474Z,22.00
2018-07-11T12:35:42.388Z,19.00
2018-07-11T12:36:42.493Z,19.80
2018-07-11T12:37:42.417Z,18.40
2018-07-11T12:38:42.526Z,17.90
2018-07-11T12:39:42.449Z,19.50
2018-07-11T12:40:42.526Z,21.20
2018-07-11T12:41:42.498Z,22.70
2018-07-11T12:42:42.539Z,20.00
2018-07-11T12:43:42.514Z,26.50
2018-07-11T12:44:42.709Z,19.40
2018-07-11T12:45:42.557Z,25.70
2018-07-11T12:46:42.649Z,20.50
2018-07-11T12:47:42.621Z,25.20
2018-07-11T12:48:42.677Z,17.80
2018-07-11T12:49:42.639Z,20.60
2018-07-11T12:50:42.685Z,27.00
2018-07-11T12:51:42.684Z,20.10
2018-07-11T12:52:42.799Z,23.90
2018-07-11T12:53:42.716Z,15.90
2018-07-11T12:54:42.815Z,17.50
2018-07-11T12:55:42.756Z,22.60
2018-07-11T12:56:42.837Z,23.00
2018-07-11T12:57:42.776Z,21.00
2018-07-11T12:58:42.831Z,22.90
2018-07-11T12:59:42.808Z,25.80
2018-07-11T13:00:43.876Z,20.60
2018-07-11T13:01:42.861Z,22.40
2018-07-11T13:02:42.952Z,21.50
2018-07-11T13:03:42.883Z,27.20
2018-07-11T13:04:42.970Z,18.60
2018-07-11T13:05:42.941Z,18.20
2018-07-11T13:06:43.042Z,18.50
2018-07-11T13:07:43.062Z,20.60
2018-07-11T13:08:43.109Z,21.10
2018-07-11T13:09:43.058Z,24.10
2018-07-11T13:10:43.022Z,25.50
2018-07-11T13:11:43.059Z,21.10
2018-07-11T13:12:43.071Z,16.70
2018-07-11T13:13:43.106Z,24.10
2018-07-11T13:14:43.157Z,21.90
2018-07-11T13:15:43.116Z,15.10
2018-07-11T13:16:43.186Z,18.30
2018-07-11T13:17:43.157Z,23.10
2018-07-11T13:18:43.200Z,23.30
2018-07-11T13:19:43.293Z,15.50
2018-07-11T13:20:43.235Z,17.80
2018-07-11T13:21:43.321Z,19.00
2018-07-11T13:22:43.243Z,15.70
2018-07-11T13:23:44.312Z,15.80
2018-07-11T13:24:43.292Z,18.10
2018-07-11T13:25:43.429Z,17.10
2018-07-11T13:26:43.378Z,15.70
2018-07-11T13:27:43.388Z,17.90
2018-07-11T13:28:43.386Z,15.90
2018-07-11T13:29:43.375Z,13.80
2018-07-11T13:30:43.454Z,18.40
2018-07-11T13:31:43.412Z,17.40
2018-07-11T13:32:43.608Z,18.80
2018-07-11T13:33:43.464Z,16.40
2018-07-11T13:34:43.586Z,19.80
2018-07-11T13:35:43.494Z,16.20
2018-07-11T13:36:43.607Z,17.80
2018-07-11T13:37:43.532Z,15.50
2018-07-11T13:38:43.631Z,15.00
2018-07-11T13:39:43.552Z,17.00
2018-07-11T13:40:43.620Z,16.10
2018-07-11T13:41:43.624Z,13.70
2018-07-11T13:42:43.636Z,19.70
2018-07-11T13:43:43.642Z,14.40
2018-07-11T13:44:43.744Z,14.30
2018-07-11T13:45:43.696Z,13.90
2018-07-11T13:46:43.785Z,14.80
2018-07-11T13:47:43.756Z,17.40
2018-07-11T13:48:43.783Z,15.00
2018-07-11T13:49:43.776Z,13.40
2018-07-11T13:50:43.842Z,14.10
2018-07-11T13:51:43.783Z,14.60
2018-07-11T13:52:43.793Z,14.80
2018-07-11T13:53:43.826Z,15.30
2018-07-11T13:54:43.838Z,14.60
2018-07-11T13:55:43.872Z,14.80
2018-07-11T13:56:43.895Z,15.80
2018-07-11T13:57:43.884Z,14.60
2018-07-11T13:58:43.914Z,14.50
2018-07-11T13:59:43.930Z,11.60
2018-07-11T14:00:44.054Z,19.50
2018-07-11T14:01:43.964Z,12.50